createdAt,value
2023-01-13T00:00:51.934Z,88.57
2023-01-13T00:03:53.947Z,89.25
2023-01-13T00:06:55.772Z,88.64
2023-01-13T00:09:57.731Z,88.97
2023-01-13T00:13:00.206Z,89.20
2023-01-13T00:16:07.672Z,89.13
2023-01-13T00:19:09.721Z,89.48
2023-01-13T00:22:11.639Z,89.48
2023-01-13T00:25:13.753Z,89.72
2023-01-13T00:28:15.613Z,89.17
2023-01-13T00:31:19.921Z,89.42
2023-01-13T00:34:22.689Z,89.30
2023-01-13T00:37:25.064Z,89.46
2023-01-13T00:40:27.019Z,89.53
2023-01-13T00:43:30.701Z,89.56
2023-01-13T00:46:32.604Z,89.48
2023-01-13T00:49:34.579Z,89.69
2023-01-13T00:52:36.553Z,88.71
2023-01-13T00:55:38.584Z,89.36
2023-01-13T00:58:41.307Z,89.08
2023-01-13T01:01:43.614Z,89.29
2023-01-13T01:04:45.657Z,88.83
2023-01-13T01:07:47.556Z,89.54
2023-01-13T01:10:49.519Z,89.41
2023-01-13T01:13:52.873Z,89.29
2023-01-13T01:16:54.912Z,89.25
2023-01-13T01:19:57.005Z,89.42
2023-01-13T01:22:58.977Z,88.95
2023-01-13T01:26:05.413Z,89.54
2023-01-13T01:29:07.366Z,89.71
2023-01-13T01:32:09.189Z,89.49
2023-01-13T01:35:11.179Z,89.63
2023-01-13T01:38:13.032Z,90.06
2023-01-13T01:41:17.596Z,90.05
2023-01-13T01:44:54.027Z,89.84
2023-01-13T01:48:04.440Z,89.85
2023-01-13T01:51:12.647Z,90.11
2023-01-13T01:54:20.683Z,89.97
2023-01-13T01:57:54.359Z,89.25
2023-01-13T02:00:56.397Z,89.60
2023-01-13T02:04:05.350Z,89.94
2023-01-13T02:07:08.150Z,90.28
2023-01-13T02:10:13.915Z,89.80
2023-01-13T02:13:15.928Z,90.33
2023-01-13T02:16:23.221Z,90.24
2023-01-13T02:19:37.076Z,90.09
2023-01-13T02:23:03.618Z,89.95
2023-01-13T02:26:11.663Z,89.75
2023-01-13T02:30:10.410Z,89.82
2023-01-13T02:33:27.238Z,89.85
2023-01-13T02:36:54.039Z,90.17
2023-01-13T02:40:01.572Z,89.86
2023-01-13T02:43:36.225Z,90.22
2023-01-13T02:46:45.203Z,89.98
2023-01-13T02:49:51.207Z,90.04
2023-01-13T02:52:58.551Z,90.19
2023-01-13T02:56:03.616Z,90.03
2023-01-13T02:59:06.664Z,89.88
2023-01-13T03:02:13.256Z,90.47
2023-01-13T03:05:17.561Z,89.96
2023-01-13T03:08:31.366Z,90.36
2023-01-13T03:11:59.655Z,90.51
2023-01-13T03:15:17.339Z,90.59
2023-01-13T03:18:50.875Z,90.01
2023-01-13T03:22:07.821Z,90.18
2023-01-13T03:25:27.857Z,90.14
2023-01-13T03:28:41.365Z,90.11
2023-01-13T03:31:50.801Z,90.29
2023-01-13T03:35:17.562Z,89.89
2023-01-13T03:38:26.251Z,89.70
2023-01-13T03:41:36.075Z,90.67
2023-01-13T03:44:46.587Z,90.02
2023-01-13T03:47:55.469Z,90.26
2023-01-13T03:51:05.306Z,90.59
2023-01-13T03:54:10.200Z,90.84
2023-01-13T03:57:15.569Z,90.60
2023-01-13T04:00:19.690Z,90.67
2023-01-13T04:03:31.772Z,90.75
2023-01-13T04:06:38.195Z,90.77
2023-01-13T04:09:43.080Z,90.74
2023-01-13T04:13:02.806Z,90.06
2023-01-13T04:16:07.093Z,90.01
2023-01-13T04:19:09.012Z,90.00
2023-01-13T04:22:10.890Z,90.58
2023-01-13T04:25:12.796Z,90.29
2023-01-13T04:28:15.461Z,90.17
2023-01-13T04:31:17.756Z,90.23
2023-01-13T04:34:19.860Z,90.75
2023-01-13T04:37:21.703Z,89.95
2023-01-13T04:40:23.656Z,90.74
2023-01-13T04:43:25.523Z,90.71
2023-01-13T04:46:27.508Z,90.31
2023-01-13T04:49:29.342Z,90.41
2023-01-13T04:52:31.263Z,90.21
2023-01-13T04:55:33.207Z,90.82
2023-01-13T04:58:35.107Z,90.85
2023-01-13T05:01:37.664Z,90.29
2023-01-13T05:04:39.776Z,90.41
2023-01-13T05:07:41.588Z,90.95
2023-01-13T05:10:43.441Z,90.66
2023-01-13T05:14:03.725Z,91.01
2023-01-13T05:17:08.828Z,90.62
2023-01-13T05:20:11.174Z,90.35
2023-01-13T05:23:31.445Z,90.81
2023-01-13T05:26:33.287Z,90.50
2023-01-13T05:29:35.514Z,90.45
2023-01-13T05:32:37.484Z,91.25
2023-01-13T05:35:41.103Z,90.95
2023-01-13T05:38:42.959Z,91.16
2023-01-13T05:42:03.220Z,90.75
2023-01-13T05:45:05.419Z,91.02
2023-01-13T05:48:07.269Z,91.20
2023-01-13T05:51:11.682Z,91.09
2023-01-13T05:54:13.738Z,90.95
2023-01-13T05:57:15.569Z,90.98
2023-01-13T06:00:17.999Z,91.13
2023-01-13T06:03:20.307Z,91.22
2023-01-13T06:06:22.171Z,91.56
2023-01-13T06:09:24.037Z,90.95
2023-01-13T06:12:25.855Z,91.24
2023-01-13T06:15:27.840Z,91.24
2023-01-13T06:18:29.807Z,91.25
2023-01-13T06:21:33.205Z,91.29
2023-01-13T06:24:36.105Z,91.46
2023-01-13T06:27:38.585Z,91.08
2023-01-13T06:30:46.931Z,91.41
2023-01-13T06:33:52.680Z,91.19
2023-01-13T06:36:55.744Z,91.53
2023-01-13T06:39:59.767Z,91.79
2023-01-13T06:43:17.956Z,91.33
2023-01-13T06:46:19.976Z,91.25
2023-01-13T06:49:22.004Z,91.47
2023-01-13T06:52:24.479Z,91.70
2023-01-13T06:55:26.423Z,91.41
2023-01-13T06:58:28.369Z,91.28
2023-01-13T07:01:30.474Z,91.46
2023-01-13T07:04:32.476Z,91.50
2023-01-13T07:07:34.365Z,91.35
2023-01-13T07:10:37.179Z,91.10
2023-01-13T07:13:57.710Z,91.21
2023-01-13T07:16:59.651Z,91.30
2023-01-13T07:20:01.661Z,91.34
2023-01-13T07:23:03.536Z,91.36
2023-01-13T07:26:06.602Z,91.46
2023-01-13T07:29:08.519Z,91.51
2023-01-13T07:32:10.475Z,91.45
2023-01-13T07:35:12.410Z,91.47
2023-01-13T07:38:15.092Z,91.42
2023-01-13T07:41:35.867Z,91.37
2023-01-13T07:44:37.981Z,91.43
2023-01-13T07:47:40.467Z,91.47
2023-01-13T07:50:44.137Z,91.36
2023-01-13T07:53:46.159Z,91.76
2023-01-13T07:56:48.062Z,91.42
2023-01-13T07:59:49.913Z,91.54
2023-01-13T08:02:52.279Z,91.51
2023-01-13T08:05:54.133Z,91.87
2023-01-13T08:08:56.049Z,91.20
2023-01-13T08:12:16.793Z,91.40
2023-01-13T08:15:18.673Z,91.76
2023-01-13T08:18:23.053Z,91.34
2023-01-13T08:21:24.916Z,91.34
2023-01-13T08:24:26.899Z,91.40
2023-01-13T08:27:28.852Z,91.63
2023-01-13T08:30:30.766Z,91.84
2023-01-13T08:33:33.231Z,91.93
2023-01-13T08:36:35.135Z,91.74
2023-01-13T08:39:36.995Z,91.53
2023-01-13T08:42:38.861Z,91.96
2023-01-13T08:45:40.874Z,91.73
2023-01-13T08:48:42.641Z,91.99
2023-01-13T08:51:45.079Z,91.46
2023-01-13T08:54:46.992Z,91.92
2023-01-13T08:57:48.883Z,91.51
2023-01-13T09:00:50.807Z,91.45
2023-01-13T09:03:53.232Z,91.25
2023-01-13T09:06:55.688Z,91.17
2023-01-13T09:09:57.626Z,91.58
2023-01-13T09:13:14.772Z,91.04
2023-01-13T09:16:16.725Z,91.34
2023-01-13T09:19:18.943Z,90.93
2023-01-13T09:22:20.884Z,91.13
2023-01-13T09:25:22.763Z,90.86
2023-01-13T09:28:24.658Z,90.82
2023-01-13T09:31:26.487Z,90.53
2023-01-13T09:34:46.953Z,90.68
2023-01-13T09:37:48.804Z,90.89
2023-01-13T09:40:50.748Z,90.91
2023-01-13T09:43:59.293Z,90.71
2023-01-13T09:47:07.008Z,90.84
2023-01-13T09:50:22.255Z,90.65
2023-01-13T09:53:34.439Z,90.82
2023-01-13T09:56:36.523Z,90.38
2023-01-13T09:59:38.838Z,90.43
2023-01-13T10:03:08.430Z,90.29
2023-01-13T10:06:12.951Z,90.19
2023-01-13T10:09:38.312Z,89.93
2023-01-13T10:13:01.489Z,90.15
2023-01-13T10:16:24.779Z,89.95
2023-01-13T10:19:34.998Z,89.94
2023-01-13T10:22:42.960Z,90.06
2023-01-13T10:26:03.966Z,90.01
2023-01-13T10:29:19.296Z,89.58
2023-01-13T10:32:21.124Z,89.78
2023-01-13T10:35:49.972Z,89.46
2023-01-13T10:38:52.029Z,89.58
2023-01-13T10:42:13.774Z,89.38
2023-01-13T10:45:25.527Z,89.69
2023-01-13T10:48:38.167Z,89.54
2023-01-13T10:51:39.933Z,89.62
2023-01-13T10:54:51.881Z,89.39
2023-01-13T10:57:53.893Z,89.69
2023-01-13T11:01:01.185Z,89.33
2023-01-13T11:04:27.049Z,89.38
2023-01-13T11:07:38.880Z,89.22
2023-01-13T11:10:47.013Z,89.27
2023-01-13T11:14:12.154Z,88.92
2023-01-13T11:17:29.361Z,88.75
2023-01-13T11:20:37.001Z,88.99
2023-01-13T11:23:49.224Z,88.77
2023-01-13T11:27:02.174Z,88.87
2023-01-13T11:30:10.157Z,88.63
2023-01-13T11:33:15.259Z,88.78
2023-01-13T11:36:35.060Z,88.40
2023-01-13T11:39:56.317Z,88.48
2023-01-13T11:43:31.632Z,88.96
2023-01-13T11:46:33.548Z,88.88
2023-01-13T11:49:35.778Z,88.29
2023-01-13T11:53:25.277Z,88.24
2023-01-13T11:56:32.985Z,88.37
2023-01-13T11:59:59.163Z,88.34
2023-01-13T12:03:19.454Z,88.53
2023-01-13T12:06:33.001Z,88.40
2023-01-13T12:09:52.735Z,88.48
2023-01-13T12:13:22.035Z,88.43
2023-01-13T12:16:31.729Z,88.40
2023-01-13T12:19:33.743Z,88.14
2023-01-13T12:22:37.260Z,88.13
2023-01-13T12:25:50.156Z,87.95
2023-01-13T12:29:04.916Z,87.61
2023-01-13T12:32:14.986Z,87.92
2023-01-13T12:35:38.907Z,87.68
2023-01-13T12:38:48.419Z,87.99
2023-01-13T12:42:31.894Z,87.55
2023-01-13T12:45:34.028Z,87.79
2023-01-13T12:48:57.230Z,87.73
2023-01-13T12:52:16.056Z,87.46
2023-01-13T12:55:35.199Z,87.43
2023-01-13T12:58:36.999Z,87.37
2023-01-13T13:01:38.960Z,87.57
2023-01-13T13:04:43.697Z,87.46
2023-01-13T13:07:48.767Z,87.37
2023-01-13T13:11:34.110Z,87.33
2023-01-13T13:14:42.155Z,86.99
2023-01-13T13:17:45.958Z,87.06
2023-01-13T13:20:54.282Z,87.04
2023-01-13T13:23:56.170Z,86.74
2023-01-13T13:27:16.198Z,86.80
2023-01-13T13:30:29.799Z,86.86
2023-01-13T13:33:52.880Z,86.64
2023-01-13T13:37:22.209Z,86.50
2023-01-13T13:40:43.629Z,86.70
2023-01-13T13:44:04.932Z,86.58
2023-01-13T13:47:07.631Z,86.43
2023-01-13T13:50:16.175Z,86.63
2023-01-13T13:53:19.805Z,86.51
2023-01-13T13:56:26.315Z,86.34
2023-01-13T13:59:30.734Z,86.25
2023-01-13T14:02:37.662Z,86.52
2023-01-13T14:05:39.505Z,86.19
2023-01-13T14:08:46.583Z,86.19
2023-01-13T14:12:16.513Z,85.88
2023-01-13T14:15:34.726Z,85.89
2023-01-13T14:18:47.539Z,85.81
2023-01-13T14:21:49.352Z,85.99
2023-01-13T14:24:55.747Z,85.75
2023-01-13T14:28:00.463Z,85.83
2023-01-13T14:31:02.795Z,85.99
2023-01-13T14:34:32.437Z,85.67
2023-01-13T14:37:41.670Z,85.57
2023-01-13T14:40:45.446Z,85.36
2023-01-13T14:43:49.292Z,85.47
2023-01-13T14:46:51.938Z,85.38
2023-01-13T14:50:16.445Z,85.44
2023-01-13T14:53:35.621Z,85.42
2023-01-13T14:56:55.575Z,85.47
2023-01-13T15:00:08.038Z,85.48
2023-01-13T15:03:14.801Z,85.53
2023-01-13T15:06:24.921Z,85.22
2023-01-13T15:09:33.364Z,85.27
2023-01-13T17:59:26.475Z,94.12
2023-01-13T18:02:30.263Z,93.24
2023-01-13T18:05:34.128Z,92.58
2023-01-13T18:08:36.108Z,91.99
2023-01-13T18:11:38.212Z,92.01
2023-01-13T18:14:40.202Z,91.43
2023-01-13T18:17:42.170Z,91.33
2023-01-13T18:21:03.511Z,90.87
2023-01-13T18:24:24.784Z,90.49
2023-01-13T18:27:30.953Z,90.22
2023-01-13T18:30:33.247Z,90.21
2023-01-13T18:33:36.326Z,89.83
2023-01-13T18:36:39.194Z,89.67
2023-01-13T18:39:41.528Z,89.21
2023-01-13T18:42:53.657Z,89.53
2023-01-13T18:45:55.622Z,89.15
2023-01-13T18:48:57.844Z,88.94
2023-01-13T18:51:59.863Z,88.67
2023-01-13T18:55:02.005Z,89.10
2023-01-13T18:58:04.519Z,89.06
2023-01-13T19:01:06.925Z,89.13
2023-01-13T19:04:15.853Z,88.56
2023-01-13T19:07:23.487Z,88.92
2023-01-13T19:10:25.420Z,89.05
2023-01-13T19:13:27.340Z,88.64
2023-01-13T19:16:29.654Z,88.83
2023-01-13T19:19:31.609Z,88.43
2023-01-13T19:22:34.722Z,88.35
2023-01-13T19:25:37.126Z,88.36
2023-01-13T19:28:40.667Z,88.73
2023-01-13T19:31:42.541Z,88.77
2023-01-13T19:34:44.914Z,88.71
2023-01-13T19:37:46.853Z,88.51
2023-01-13T19:41:00.628Z,88.55
2023-01-13T19:44:21.312Z,88.75
2023-01-13T19:47:23.477Z,88.63
2023-01-13T19:50:25.769Z,88.29
2023-01-13T19:53:29.062Z,88.29
2023-01-13T19:56:31.033Z,88.21
2023-01-13T19:59:33.617Z,88.44
2023-01-13T20:02:37.082Z,88.03
2023-01-13T20:05:39.015Z,88.10
2023-01-13T20:08:42.050Z,88.04
2023-01-13T20:11:43.812Z,88.12
2023-01-13T20:14:47.670Z,87.96
2023-01-13T20:17:49.532Z,88.44
2023-01-13T20:20:51.454Z,87.96
2023-01-13T20:23:53.730Z,87.97
2023-01-13T20:26:55.742Z,88.13
2023-01-13T20:29:57.652Z,88.20
2023-01-13T20:32:59.556Z,87.97
2023-01-13T20:36:01.709Z,87.94
2023-01-13T20:39:06.238Z,88.34
2023-01-13T20:42:28.091Z,88.18
2023-01-13T20:45:29.957Z,88.36
2023-01-13T20:48:32.846Z,88.21
2023-01-13T20:51:34.731Z,88.09
2023-01-13T20:54:41.374Z,87.95
2023-01-13T20:57:43.570Z,87.98
2023-01-13T21:00:45.471Z,87.96
2023-01-13T21:03:47.440Z,88.22
2023-01-13T21:06:49.960Z,88.14
2023-01-13T21:09:51.890Z,88.34
2023-01-13T21:13:12.186Z,88.05
2023-01-13T21:16:14.267Z,88.28
2023-01-13T21:19:16.845Z,88.16
2023-01-13T21:22:18.761Z,88.13
2023-01-13T21:25:20.738Z,87.82
2023-01-13T21:28:25.189Z,88.10
2023-01-13T21:31:27.787Z,88.14
2023-01-13T21:34:29.757Z,88.02
2023-01-13T21:37:31.701Z,87.83
2023-01-13T21:40:33.675Z,88.14
2023-01-13T21:44:06.759Z,87.96
2023-01-13T21:47:35.556Z,87.96
2023-01-13T21:50:38.655Z,88.36
2023-01-13T21:53:40.582Z,88.17
2023-01-13T21:56:42.440Z,88.37
2023-01-13T21:59:44.345Z,88.14
2023-01-13T22:02:46.688Z,88.30
2023-01-13T22:05:54.822Z,88.23
2023-01-13T22:08:59.984Z,88.64
2023-01-13T22:12:01.934Z,88.60
2023-01-13T22:15:04.316Z,88.59
2023-01-13T22:18:06.316Z,88.69
2023-01-13T22:21:08.337Z,88.50
2023-01-13T22:24:10.277Z,88.68
2023-01-13T22:27:18.542Z,88.97
2023-01-13T22:30:25.129Z,88.87
2023-01-13T22:33:27.055Z,88.63
2023-01-13T22:36:28.938Z,89.28
2023-01-13T22:39:30.857Z,88.91
2023-01-13T22:42:37.030Z,88.96
2023-01-13T22:45:39.104Z,88.86
2023-01-13T22:48:41.202Z,88.77
2023-01-13T22:51:44.119Z,89.41
2023-01-13T22:54:45.931Z,88.95
2023-01-13T22:57:48.561Z,89.00
2023-01-13T23:00:50.881Z,89.17
2023-01-13T23:03:53.440Z,89.28
2023-01-13T23:06:55.413Z,89.39
2023-01-13T23:09:57.311Z,89.17
2023-01-13T23:12:59.213Z,89.53
2023-01-13T23:16:12.249Z,89.37
2023-01-13T23:19:14.239Z,89.13
2023-01-13T23:22:18.738Z,89.85
2023-01-13T23:25:20.607Z,89.50
2023-01-13T23:28:22.835Z,89.46
2023-01-13T23:31:24.748Z,89.97
2023-01-13T23:34:26.760Z,89.74
2023-01-13T23:37:28.715Z,89.77
2023-01-13T23:40:30.732Z,89.35
2023-01-13T23:43:32.812Z,89.70
2023-01-13T23:46:35.434Z,89.61
2023-01-13T23:49:37.400Z,89.60
2023-01-13T23:52:39.312Z,89.72
2023-01-13T23:55:41.158Z,89.64
2023-01-13T23:58:44.026Z,89.45
